Ana Sayfa
METAR-TAF:

METAR-TAF

Havaalanları :

Knox County Regional Airport

Rockland, Maine, Amerika Birleşik Devletleri

Enlem: 44-04N, Boylam: 069-06W, yükseklik: 17 m

Güncel hava durumu gözlemi

Rapor saat 05:56 UTC de 32 dakika önce yapıldı.
Rüzgar kuzey/kuzeybatıdan 4 kt
Sıcaklık -6°C
Nem 58%
Basınç 1033 hPa
Görüş mesafesi: 16.1 km
Açık gökyüzü

METAR: KRKD 170556Z AUTO 34004KT 10SM CLR M06/M13 A3051 RMK AO2 SLP332 T10611133 11033 21061 58008 FZRANO

Saat: 01:28 (06:28 UTC)

Tahmin

Rapor saat 05:38 UTC de 50 dakika önce yapıldı.
Ayın 17'si saat 06 UTC'den ayın 18'si saat 06 UTC'ye kadar geçerli Tahmin
Rüzgar kuzeydan 4 kt
Görüş mesafesi: 10 km
25000 ft yükseklikte az bulutlu
Ayın 18'si saat 0000 UTC'den
Rüzgar doğu/kuzeydoğudan 5 kt
Görüş mesafesi: 10 km
2200 ft yükseklikte parçalı bulutlu

TAF: KRKD 170538Z 1706/1806 35004KT P6SM FEW250 FM180000 07005KT P6SM SCT022

4.000'den fazla havaalanı için hava durumu gözlemleri ve tahminleri (METAR ve TAF raporları).

Kullanılabilir istasyonlar harita üzerinde sarı ve kırmızı noktalarla gösterilir.

İstasyonun adını görmek için fareyi noktanın üzerinde gezdirin.

Sonrasında hava gözlem ve tahminlerini görmek için tıklayın.

Haritayı değiştirmek için: yaklaştırmak için siyah artı işaretli yeşil düğmeye ve uzaklaştırmak için de eksi işaretli düğmeye hızla tıklayın; bitişik haritalar için yeşil okları kullanın.


METAR-TAF: